Burgtor — V2OR7 — position and weather

sailwx.info

Track history (hours):
 
Tides and Currents Weather Stations Pressure Air Temp Water Temp Dewpoint Dewpoint Depression Visibility Wind Speed Wind Dir Waves Ship Positions

Burgtor

Last reported at 2017-Feb-22 14:31 UTC. Time now 2017-Feb-22 20:05 UTC.
Position N 53°31' E 009°54'.

Length 87 m; draft 3.8 m.

Type: Cargo ship. MMSI: 304665000.

Date/timePositionNaut miles runAvg speedWind from/ knotsBaromVisibWave heightAir tempDewpointWater temp
2017-Feb-22 14:31N 53°31' E 009°54'0 0.0
2017-Feb-22 12:31N 53°31' E 009°54'0 0.0
2017-Feb-22 11:31N 53°31' E 009°54'0 0.0
2017-Feb-22 10:31N 53°31' E 009°54'0 0.0
2017-Feb-22 09:31N 53°31' E 009°54'0 0.0
2017-Feb-22 08:31N 53°31' E 009°54'0 0.0
2017-Feb-22 07:31N 53°31' E 009°54'0 0.0
2017-Feb-22 06:31N 53°31' E 009°54'0 0.0
2017-Feb-22 05:31N 53°31' E 009°54'0 0.0
2017-Feb-22 04:31N 53°31' E 009°54'0 0.0
2017-Feb-22 03:31N 53°31' E 009°54'0 0.0
2017-Feb-22 02:31N 53°31' E 009°54'0 0.0
2017-Feb-22 01:31N 53°31' E 009°54'0 0.0
2017-Feb-22 00:31N 53°31' E 009°54'0 0.0
2017-Feb-21 23:33N 53°31' E 009°54'0 0.0
2017-Feb-21 22:33N 53°31' E 009°54'0 0.0
2017-Feb-21 21:33N 53°31' E 009°54'0 0.0
2017-Feb-21 20:33N 53°31' E 009°54'0 0.0
2017-Feb-21 19:33N 53°31' E 009°54'0 0.0
2017-Feb-21 18:33N 53°31' E 009°54'0 0.0
2017-Feb-21 17:33N 53°31' E 009°54'0 0.0
2017-Feb-21 16:30N 53°31' E 009°54'0 0.0
2017-Feb-21 15:30N 53°31' E 009°54'0 0.0
2017-Feb-21 14:33N 53°31' E 009°54'0 0.0
2017-Feb-21 13:33N 53°31' E 009°54'0 0.0
2017-Feb-21 12:33N 53°31' E 009°54'0 0.0
2017-Feb-21 11:33N 53°31' E 009°54'0 0.0
2017-Feb-21 10:33N 53°31' E 009°54'0 0.0
2017-Feb-21 09:33N 53°31' E 009°54'0 0.0
2017-Feb-21 08:33N 53°31' E 009°54'0 0.0
2017-Feb-21 07:33N 53°31' E 009°54'0 0.0
2017-Feb-21 06:33N 53°31' E 009°54'0 0.0
2017-Feb-21 05:33N 53°31' E 009°54'0 0.0
2017-Feb-21 04:33N 53°31' E 009°54'0 0.0
2017-Feb-21 03:33N 53°31' E 009°54'0 0.0
2017-Feb-21 02:33N 53°31' E 009°54'0 0.0
2017-Feb-21 01:33N 53°31' E 009°54'0 0.0
2017-Feb-21 00:33N 53°31' E 009°54'0 0.0
2017-Feb-20 23:33N 53°31' E 009°54'0 0.0
2017-Feb-20 22:33N 53°31' E 009°54'0 0.0
2017-Feb-20 21:33N 53°31' E 009°54'0 0.0
2017-Feb-20 20:33N 53°31' E 009°54'0 0.0
2017-Feb-20 19:33N 53°31' E 009°54'0 0.0
2017-Feb-20 18:33N 53°31' E 009°54'0 0.0
2017-Feb-20 17:33N 53°31' E 009°54'0 0.0
2017-Feb-20 16:33N 53°31' E 009°54'0 0.0
2017-Feb-20 15:27N 53°31' E 009°54'0 0.0
2017-Feb-20 14:33N 53°31' E 009°54'0 0.0
2017-Feb-20 13:30N 53°31' E 009°54'0 0.0
2017-Feb-20 12:33N 53°31' E 009°54'0 0.4
2017-Feb-20 11:33N 53°32' E 009°53'7 6.8
2017-Feb-20 10:33N 53°34' E 009°43'8 8.5
2017-Feb-20 09:33N 53°39' E 009°31'9 8.9
2017-Feb-20 08:33N 53°46' E 009°23'10 9.5
2017-Feb-20 07:33N 53°53' E 009°11'1111.0
2017-Feb-20 06:33N 53°50' E 008°53'10 9.9
2017-Feb-20 05:33N 53°56' E 008°39'1110.6
2017-Feb-20 04:33N 53°59' E 008°22'162 7.7
2017-Feb-19 07:25N 52°52' E 004°14'81 8.9
2017-Feb-18 22:20N 53°02' E 002°00'7 9.2
2017-Feb-18 21:33N 53°04' E 001°48'9 9.2
2017-Feb-18 20:33N 53°04' E 001°33'9 8.5
2017-Feb-18 19:33N 53°05' E 001°19'58 8.1
2017-Feb-18 12:27N 53°36' W 000°03'910.4
2017-Feb-18 11:34N 53°42' W 000°14'5 3.9
2017-Feb-18 10:22N 53°43' W 000°22'0 0.0
2017-Feb-18 09:25N 53°43' W 000°22'0 0.0
2017-Feb-18 08:28N 53°43' W 000°22'0 0.0
2017-Feb-18 07:30N 53°43' W 000°22'0 0.0
2017-Feb-18 06:33N 53°43' W 000°22'0 0.0
2017-Feb-18 05:33N 53°43' W 000°22'0 0.0
2017-Feb-18 04:30N 53°43' W 000°22'0 0.0
2017-Feb-18 03:33N 53°43' W 000°22'0 0.0
2017-Feb-18 02:33N 53°43' W 000°22'0 0.0
2017-Feb-18 01:33N 53°43' W 000°22'0 0.0
2017-Feb-18 00:33N 53°43' W 000°22'0 0.0
2017-Feb-17 23:30N 53°43' W 000°22'0 0.0
2017-Feb-17 22:33N 53°43' W 000°22'0 0.0
2017-Feb-17 21:33N 53°43' W 000°22'0 0.0
2017-Feb-17 20:30N 53°43' W 000°22'0 0.0
2017-Feb-17 19:33N 53°43' W 000°22'0 0.0
2017-Feb-17 18:30N 53°43' W 000°22'0 0.0
2017-Feb-17 17:33N 53°43' W 000°22'0 0.0
2017-Feb-17 16:33N 53°43' W 000°22'0 0.0
2017-Feb-17 15:33N 53°43' W 000°22'0 0.0
2017-Feb-17 14:33N 53°43' W 000°22'0 0.0
2017-Feb-17 13:33N 53°43' W 000°22'0 0.0
2017-Feb-17 12:30N 53°43' W 000°22'0 0.0
2017-Feb-17 11:33N 53°43' W 000°22'0 0.0
2017-Feb-17 10:33N 53°43' W 000°22'0 0.0
2017-Feb-17 09:33N 53°43' W 000°22'0 0.0
2017-Feb-17 08:33N 53°43' W 000°22'0 0.0
2017-Feb-17 07:30N 53°43' W 000°22'0 0.0
2017-Feb-17 06:33N 53°43' W 000°22'0 0.0
2017-Feb-17 05:33N 53°43' W 000°22'0 0.0
2017-Feb-17 04:33N 53°43' W 000°22'0 0.0
2017-Feb-17 03:32N 53°43' W 000°22'0 0.0
2017-Feb-17 02:26N 53°43' W 000°22'0 0.0
2017-Feb-17 01:32N 53°43' W 000°22'0 0.0
2017-Feb-17 00:32N 53°43' W 000°22'0 0.0
2017-Feb-16 23:29N 53°43' W 000°22'0 0.0
2017-Feb-16 22:29N 53°43' W 000°22'1 0.6
2017-Feb-16 21:33N 53°43' W 000°21'8 8.0
2017-Feb-16 20:33N 53°39' W 000°10'60 1.9
2017-Feb-15 12:12N 53°01' E 001°10'5 7.5
2017-Feb-15 11:33N 52°60' E 001°17'7 6.5
2017-Feb-15 10:33N 52°57' E 001°27'6 6.1
2017-Feb-15 09:33N 52°53' E 001°35'91 8.9
2017-Feb-14 23:15N 52°05' E 003°43'7 9.7
2017-Feb-14 22:33N 52°02' E 003°53'1010.2
2017-Feb-14 21:33N 51°58' E 004°08'1110.7
2017-Feb-14 20:33N 51°54' E 004°24'3 3.1
2017-Feb-14 19:32N 51°54' E 004°29'0 0.0
2017-Feb-14 18:32N 51°54' E 004°29'0 0.0
2017-Feb-14 17:32N 51°54' E 004°29'0 0.0
2017-Feb-14 16:32N 51°54' E 004°29'0 0.0
2017-Feb-14 15:31N 51°54' E 004°29'0 0.0
2017-Feb-14 14:32N 51°54' E 004°29'0 0.0
2017-Feb-14 13:32N 51°54' E 004°29'4 4.1
2017-Feb-14 12:33N 51°54' E 004°23'1 0.9
2017-Feb-14 11:33N 51°54' E 004°21'0 0.0
2017-Feb-14 10:21N 51°54' E 004°21'0 0.0
2017-Feb-14 09:33N 51°54' E 004°21'0 0.0
2017-Feb-14 08:33N 51°54' E 004°21'0 0.0
2017-Feb-14 07:30N 51°54' E 004°21'0 0.0
2017-Feb-14 06:33N 51°54' E 004°21'0 0.0
2017-Feb-14 05:33N 51°54' E 004°21'0 0.0
2017-Feb-14 04:29N 51°54' E 004°21'0 0.0
2017-Feb-14 03:32N 51°54' E 004°21'0 0.0
2017-Feb-14 02:32N 51°54' E 004°21'0 0.0
2017-Feb-14 01:32N 51°54' E 004°21'0 0.0
2017-Feb-14 00:33N 51°54' E 004°21'0 0.0
2017-Feb-13 23:33N 51°54' E 004°21'0 0.0
2017-Feb-13 22:32N 51°54' E 004°21'0 0.0
2017-Feb-13 21:30N 51°54' E 004°21'0 0.0
2017-Feb-13 20:33N 51°54' E 004°21'0 0.0
2017-Feb-13 19:33N 51°54' E 004°21'0 0.0
2017-Feb-13 18:24N 51°54' E 004°21'0 0.0
2017-Feb-13 17:33N 51°54' E 004°21'0 0.0
2017-Feb-13 16:33N 51°54' E 004°21'0 0.0
2017-Feb-13 15:26N 51°54' E 004°21'0 0.0
2017-Feb-13 14:33N 51°54' E 004°21'0 0.0
2017-Feb-13 13:32N 51°54' E 004°21'0 0.0
2017-Feb-13 12:26N 51°54' E 004°21'0 0.0
2017-Feb-13 11:26N 51°54' E 004°21'0 0.0
2017-Feb-13 10:32N 51°54' E 004°21'0 0.0
2017-Feb-13 09:32N 51°54' E 004°21'0 0.0
2017-Feb-13 08:32N 51°54' E 004°21'0 0.0
2017-Feb-13 07:25N 51°54' E 004°21'0 0.0
2017-Feb-13 06:31N 51°54' E 004°21'0 0.0
2017-Feb-13 05:31N 51°54' E 004°21'0 0.0
2017-Feb-13 04:25N 51°54' E 004°21'0 0.0
2017-Feb-13 03:31N 51°54' E 004°21'0 0.0
2017-Feb-13 02:31N 51°54' E 004°21'0 0.0
2017-Feb-13 01:31N 51°54' E 004°21'0 0.0
2017-Feb-13 00:31N 51°54' E 004°21'0 0.0
2017-Feb-12 23:31N 51°54' E 004°21'0 0.0
2017-Feb-12 22:34N 51°54' E 004°21'0 0.0
2017-Feb-12 21:33N 51°54' E 004°21'0 0.0
2017-Feb-12 20:30N 51°54' E 004°21'0 0.0
2017-Feb-12 19:33N 51°54' E 004°21'0 0.0
2017-Feb-12 18:33N 51°54' E 004°21'0 0.0
2017-Feb-12 17:33N 51°54' E 004°21'0 0.0
2017-Feb-12 16:33N 51°54' E 004°21'0 0.0
2017-Feb-12 15:33N 51°54' E 004°21'  
Track history (hours):
 
Tides and Currents Weather Stations Pressure Air Temp Water Temp Dewpoint Dewpoint Depression Visibility Wind Speed Wind Dir Waves Ship Positions

Burgtor

Last reported at 2017-Feb-22 14:31 UTC. Time now 2017-Feb-22 20:05 UTC.
Position N 53°31' E 009°54'.

Length 87 m; draft 3.8 m.

Type: Cargo ship. MMSI: 304665000.

Date/timePositionNaut miles runAvg speedWind from/ knotsBaromVisibWave heightAir tempDewpointWater temp
2017-Feb-22 14:31N 53°31' E 009°54'0 0.0
2017-Feb-22 12:31N 53°31' E 009°54'0 0.0
2017-Feb-22 11:31N 53°31' E 009°54'0 0.0
2017-Feb-22 10:31N 53°31' E 009°54'0 0.0
2017-Feb-22 09:31N 53°31' E 009°54'0 0.0
2017-Feb-22 08:31N 53°31' E 009°54'0 0.0
2017-Feb-22 07:31N 53°31' E 009°54'0 0.0
2017-Feb-22 06:31N 53°31' E 009°54'0 0.0
2017-Feb-22 05:31N 53°31' E 009°54'0 0.0
2017-Feb-22 04:31N 53°31' E 009°54'0 0.0
2017-Feb-22 03:31N 53°31' E 009°54'0 0.0
2017-Feb-22 02:31N 53°31' E 009°54'0 0.0
2017-Feb-22 01:31N 53°31' E 009°54'0 0.0
2017-Feb-22 00:31N 53°31' E 009°54'0 0.0
2017-Feb-21 23:33N 53°31' E 009°54'0 0.0
2017-Feb-21 22:33N 53°31' E 009°54'0 0.0
2017-Feb-21 21:33N 53°31' E 009°54'0 0.0
2017-Feb-21 20:33N 53°31' E 009°54'0 0.0
2017-Feb-21 19:33N 53°31' E 009°54'0 0.0
2017-Feb-21 18:33N 53°31' E 009°54'0 0.0
2017-Feb-21 17:33N 53°31' E 009°54'0 0.0
2017-Feb-21 16:30N 53°31' E 009°54'0 0.0
2017-Feb-21 15:30N 53°31' E 009°54'0 0.0
2017-Feb-21 14:33N 53°31' E 009°54'0 0.0
2017-Feb-21 13:33N 53°31' E 009°54'0 0.0
2017-Feb-21 12:33N 53°31' E 009°54'0 0.0
2017-Feb-21 11:33N 53°31' E 009°54'0 0.0
2017-Feb-21 10:33N 53°31' E 009°54'0 0.0
2017-Feb-21 09:33N 53°31' E 009°54'0 0.0
2017-Feb-21 08:33N 53°31' E 009°54'0 0.0
2017-Feb-21 07:33N 53°31' E 009°54'0 0.0
2017-Feb-21 06:33N 53°31' E 009°54'0 0.0
2017-Feb-21 05:33N 53°31' E 009°54'0 0.0
2017-Feb-21 04:33N 53°31' E 009°54'0 0.0
2017-Feb-21 03:33N 53°31' E 009°54'0 0.0
2017-Feb-21 02:33N 53°31' E 009°54'0 0.0
2017-Feb-21 01:33N 53°31' E 009°54'0 0.0
2017-Feb-21 00:33N 53°31' E 009°54'0 0.0
2017-Feb-20 23:33N 53°31' E 009°54'0 0.0
2017-Feb-20 22:33N 53°31' E 009°54'0 0.0
2017-Feb-20 21:33N 53°31' E 009°54'0 0.0
2017-Feb-20 20:33N 53°31' E 009°54'0 0.0
2017-Feb-20 19:33N 53°31' E 009°54'0 0.0
2017-Feb-20 18:33N 53°31' E 009°54'0 0.0
2017-Feb-20 17:33N 53°31' E 009°54'0 0.0
2017-Feb-20 16:33N 53°31' E 009°54'0 0.0
2017-Feb-20 15:27N 53°31' E 009°54'0 0.0
2017-Feb-20 14:33N 53°31' E 009°54'0 0.0
2017-Feb-20 13:30N 53°31' E 009°54'0 0.0
2017-Feb-20 12:33N 53°31' E 009°54'0 0.4
2017-Feb-20 11:33N 53°32' E 009°53'7 6.8
2017-Feb-20 10:33N 53°34' E 009°43'8 8.5
2017-Feb-20 09:33N 53°39' E 009°31'9 8.9
2017-Feb-20 08:33N 53°46' E 009°23'10 9.5
2017-Feb-20 07:33N 53°53' E 009°11'1111.0
2017-Feb-20 06:33N 53°50' E 008°53'10 9.9
2017-Feb-20 05:33N 53°56' E 008°39'1110.6
2017-Feb-20 04:33N 53°59' E 008°22'162 7.7
2017-Feb-19 07:25N 52°52' E 004°14'81 8.9
2017-Feb-18 22:20N 53°02' E 002°00'7 9.2
2017-Feb-18 21:33N 53°04' E 001°48'9 9.2
2017-Feb-18 20:33N 53°04' E 001°33'9 8.5
2017-Feb-18 19:33N 53°05' E 001°19'58 8.1
2017-Feb-18 12:27N 53°36' W 000°03'910.4
2017-Feb-18 11:34N 53°42' W 000°14'5 3.9
2017-Feb-18 10:22N 53°43' W 000°22'0 0.0
2017-Feb-18 09:25N 53°43' W 000°22'0 0.0
2017-Feb-18 08:28N 53°43' W 000°22'0 0.0
2017-Feb-18 07:30N 53°43' W 000°22'0 0.0
2017-Feb-18 06:33N 53°43' W 000°22'0 0.0
2017-Feb-18 05:33N 53°43' W 000°22'0 0.0
2017-Feb-18 04:30N 53°43' W 000°22'0 0.0
2017-Feb-18 03:33N 53°43' W 000°22'0 0.0
2017-Feb-18 02:33N 53°43' W 000°22'0 0.0
2017-Feb-18 01:33N 53°43' W 000°22'0 0.0
2017-Feb-18 00:33N 53°43' W 000°22'0 0.0
2017-Feb-17 23:30N 53°43' W 000°22'0 0.0
2017-Feb-17 22:33N 53°43' W 000°22'0 0.0
2017-Feb-17 21:33N 53°43' W 000°22'0 0.0
2017-Feb-17 20:30N 53°43' W 000°22'0 0.0
2017-Feb-17 19:33N 53°43' W 000°22'0 0.0
2017-Feb-17 18:30N 53°43' W 000°22'0 0.0
2017-Feb-17 17:33N 53°43' W 000°22'0 0.0
2017-Feb-17 16:33N 53°43' W 000°22'0 0.0
2017-Feb-17 15:33N 53°43' W 000°22'0 0.0
2017-Feb-17 14:33N 53°43' W 000°22'0 0.0
2017-Feb-17 13:33N 53°43' W 000°22'0 0.0
2017-Feb-17 12:30N 53°43' W 000°22'0 0.0
2017-Feb-17 11:33N 53°43' W 000°22'0 0.0
2017-Feb-17 10:33N 53°43' W 000°22'0 0.0
2017-Feb-17 09:33N 53°43' W 000°22'0 0.0
2017-Feb-17 08:33N 53°43' W 000°22'0 0.0
2017-Feb-17 07:30N 53°43' W 000°22'0 0.0
2017-Feb-17 06:33N 53°43' W 000°22'0 0.0
2017-Feb-17 05:33N 53°43' W 000°22'0 0.0
2017-Feb-17 04:33N 53°43' W 000°22'0 0.0
2017-Feb-17 03:32N 53°43' W 000°22'0 0.0
2017-Feb-17 02:26N 53°43' W 000°22'0 0.0
2017-Feb-17 01:32N 53°43' W 000°22'0 0.0
2017-Feb-17 00:32N 53°43' W 000°22'0 0.0
2017-Feb-16 23:29N 53°43' W 000°22'0 0.0
2017-Feb-16 22:29N 53°43' W 000°22'1 0.6
2017-Feb-16 21:33N 53°43' W 000°21'8 8.0
2017-Feb-16 20:33N 53°39' W 000°10'60 1.9
2017-Feb-15 12:12N 53°01' E 001°10'5 7.5
2017-Feb-15 11:33N 52°60' E 001°17'7 6.5
2017-Feb-15 10:33N 52°57' E 001°27'6 6.1
2017-Feb-15 09:33N 52°53' E 001°35'91 8.9
2017-Feb-14 23:15N 52°05' E 003°43'7 9.7
2017-Feb-14 22:33N 52°02' E 003°53'1010.2
2017-Feb-14 21:33N 51°58' E 004°08'1110.7
2017-Feb-14 20:33N 51°54' E 004°24'3 3.1
2017-Feb-14 19:32N 51°54' E 004°29'0 0.0
2017-Feb-14 18:32N 51°54' E 004°29'0 0.0
2017-Feb-14 17:32N 51°54' E 004°29'0 0.0
2017-Feb-14 16:32N 51°54' E 004°29'0 0.0
2017-Feb-14 15:31N 51°54' E 004°29'0 0.0
2017-Feb-14 14:32N 51°54' E 004°29'0 0.0
2017-Feb-14 13:32N 51°54' E 004°29'4 4.1
2017-Feb-14 12:33N 51°54' E 004°23'1 0.9
2017-Feb-14 11:33N 51°54' E 004°21'0 0.0
2017-Feb-14 10:21N 51°54' E 004°21'0 0.0
2017-Feb-14 09:33N 51°54' E 004°21'0 0.0
2017-Feb-14 08:33N 51°54' E 004°21'0 0.0
2017-Feb-14 07:30N 51°54' E 004°21'0 0.0
2017-Feb-14 06:33N 51°54' E 004°21'0 0.0
2017-Feb-14 05:33N 51°54' E 004°21'0 0.0
2017-Feb-14 04:29N 51°54' E 004°21'0 0.0
2017-Feb-14 03:32N 51°54' E 004°21'0 0.0
2017-Feb-14 02:32N 51°54' E 004°21'0 0.0
2017-Feb-14 01:32N 51°54' E 004°21'0 0.0
2017-Feb-14 00:33N 51°54' E 004°21'0 0.0
2017-Feb-13 23:33N 51°54' E 004°21'0 0.0
2017-Feb-13 22:32N 51°54' E 004°21'0 0.0
2017-Feb-13 21:30N 51°54' E 004°21'0 0.0
2017-Feb-13 20:33N 51°54' E 004°21'0 0.0
2017-Feb-13 19:33N 51°54' E 004°21'0 0.0
2017-Feb-13 18:24N 51°54' E 004°21'0 0.0
2017-Feb-13 17:33N 51°54' E 004°21'0 0.0
2017-Feb-13 16:33N 51°54' E 004°21'0 0.0
2017-Feb-13 15:26N 51°54' E 004°21'0 0.0
2017-Feb-13 14:33N 51°54' E 004°21'0 0.0
2017-Feb-13 13:32N 51°54' E 004°21'0 0.0
2017-Feb-13 12:26N 51°54' E 004°21'0 0.0
2017-Feb-13 11:26N 51°54' E 004°21'0 0.0
2017-Feb-13 10:32N 51°54' E 004°21'0 0.0
2017-Feb-13 09:32N 51°54' E 004°21'0 0.0
2017-Feb-13 08:32N 51°54' E 004°21'0 0.0
2017-Feb-13 07:25N 51°54' E 004°21'0 0.0
2017-Feb-13 06:31N 51°54' E 004°21'0 0.0
2017-Feb-13 05:31N 51°54' E 004°21'0 0.0
2017-Feb-13 04:25N 51°54' E 004°21'0 0.0
2017-Feb-13 03:31N 51°54' E 004°21'0 0.0
2017-Feb-13 02:31N 51°54' E 004°21'0 0.0
2017-Feb-13 01:31N 51°54' E 004°21'0 0.0
2017-Feb-13 00:31N 51°54' E 004°21'0 0.0
2017-Feb-12 23:31N 51°54' E 004°21'0 0.0
2017-Feb-12 22:34N 51°54' E 004°21'0 0.0
2017-Feb-12 21:33N 51°54' E 004°21'0 0.0
2017-Feb-12 20:30N 51°54' E 004°21'0 0.0
2017-Feb-12 19:33N 51°54' E 004°21'0 0.0
2017-Feb-12 18:33N 51°54' E 004°21'0 0.0
2017-Feb-12 17:33N 51°54' E 004°21'0 0.0
2017-Feb-12 16:33N 51°54' E 004°21'0 0.0
2017-Feb-12 15:33N 51°54' E 004°21'  

Dump ship's entire track history